Agana Heights, GU

12:50 PM ChST on July 23, 2014 (GMT +1000)
Maite (KGUMAITE2) Elev 140 ft | 13.48 °N, 144.76 °E | Change Station

Current weather conditions updated 3 seconds ago

Partly Cloudy
Partly Cloudy
88.4 °F
Feels Like 103 °F
N
7.0
Wind Variable Wind from East
Gusts 17.0 mph

Today is forecast to be nearly the same temperature as yesterday. Showers and thunderstorms.

Today
High -- | Low -- °F
--% Chance of Precip.
Yesterday
High -- | Low -- °F
Precip. -- in
6:03 AM 6:51 PM
Waning Crescent, 13% visible
Pressure 29.78 in
Visibility 10.0 miles
Clouds Few 2200 ft
Heat Index 103 °F
Dew Point 79 °F
Humidity 73%
Rainfall 0.05 in
Snow Depth Not available.
UV 14.2 out of 12
Pollen Not available.
Air Quality Not available.
Flu Activity Not available.
METAR PGUM 230154Z 09009KT 10SM FEW022 31/26 A2980 RMK AO2 SLP083 T03110256

More Conditions Fewer Conditions

Pressure 29.78 in
Visibility 10.0 miles
Clouds Few 2200 ft
Heat Index 103 °F
Dew Point 79 °F
Humidity 73%
Rainfall 0.05 in
Snow Depth Not available.
UV 14.2 out of 12
Pollen Not available.
Air Quality Not available.
Flu Activity Not available.
METAR PGUM 230154Z 09009KT 10SM FEW022 31/26 A2980 RMK AO2 SLP083 T03110256

More Conditions Fewer Conditions

10-Day Weather Forecast

Almanac

Astronomy

Jul. 23, 2014 Rise Set
Actual Time 6:03 AM ChST 6:51 PM ChST
Civil Twilight 5:40 AM ChST 7:14 PM ChST
Nautical Twilight 5:13 AM ChST 7:40 PM ChST
Astronomical Twilight 4:46 AM ChST 8:08 PM ChST
Moon 2:47 AM ChST 3:50 PM ChST
Length of Visible Light 13h 33m
Length of Day
12h 47m
Tomorrow will be 0m 27s shorter.
Waning Crescent, 13% of the Moon is Illuminated
Jul 22
Waning Crescent
Jul 26
New
Aug 3
First Quarter
Aug 10
Full
Aug 17
Last Quarter

Community

WunderPhotos

Upload Photos

1,736,460 photos uploaded!

Nearby

Snow Depth

Station Depth Elevation
No new snow has been reported.

Earthquake Activity

City Distance Mag. Time & Date
No recent earthquake activity has been reported nearby.
Minimum magnitude displayed is 2.5.

Coastal Water Temperatures

Place Temperature
No Stations Reporting

Nearby Weather Stations

Station Location Temp. Heat Index Dew Point Humidity Wind Precip. Elev Updated Type
Maite, Maite, GU 88.4 °F 103 °F 79 °F 73% East  at  7.0 mph 0.00 in / hr 140 ft 12:50 PM ChST Rapid Fire
Ordot Dump, Chalan Pago Ordot 89.4 °F 108 °F 81 °F 76% NE  at  0.0 mph 0.00 in / hr 282 ft 12:50 PM ChST Rapid Fire
Perezville, Tamuning, Guam 88.4 °F 101 °F 77 °F 70% ENE  at  4.0 mph 0.00 in / hr 120 ft 12:50 PM ChST Normal
Mangilao, Mangilao, GU 85.6 °F 95 °F 76 °F 72% NE  at  6.0 mph 0.00 in / hr 361 ft 12:50 PM ChST Rapid Fire
Jeffs Pirates Cove, Guam, Ipan Talofofo, GU 86.6 °F 104 °F 81 °F 84% NE  at  8.0 mph 0.00 in / hr 27 ft 12:50 PM ChST Rapid Fire
Ypaopao Estates, Dededo 85.6 °F 97 °F 77 °F 76% SE  at  8.1 mph 0.00 in / hr 420 ft 12:47 PM ChST Rapid Fire

Show More Stations Show Fewer Stations